sensor_id;sensor_type;location;lat;lon;timestamp;pressure;altitude;pressure_sealevel;temperature;humidity
40502;BME280;29631;49.168;9.848;2022-11-09T00:02:09;96297.59;;;16.94;78.82
40502;BME280;29631;49.168;9.848;2022-11-09T00:04:35;96291.44;;;16.89;79.02
40502;BME280;29631;49.168;9.848;2022-11-09T00:07:01;96314.91;;;16.97;79.55
40502;BME280;29631;49.168;9.848;2022-11-09T00:09:26;96300.06;;;17.01;79.31
40502;BME280;29631;49.168;9.848;2022-11-09T00:11:53;96310.78;;;17.11;79.01
40502;BME280;29631;49.168;9.848;2022-11-09T00:14:19;96296.69;;;17.10;79.22
40502;BME280;29631;49.168;9.848;2022-11-09T00:16:45;96301.16;;;17.05;79.11
40502;BME280;29631;49.168;9.848;2022-11-09T00:19:10;96301.97;;;17.05;79.47
40502;BME280;29631;49.168;9.848;2022-11-09T00:21:37;96299.59;;;17.09;79.76
40502;BME280;29631;49.168;9.848;2022-11-09T00:24:04;96280.88;;;17.04;79.29
40502;BME280;29631;49.168;9.848;2022-11-09T00:26:30;96278.22;;;17.04;79.64
40502;BME280;29631;49.168;9.848;2022-11-09T00:28:55;96260.56;;;16.93;79.50
40502;BME280;29631;49.168;9.848;2022-11-09T00:31:23;96283.56;;;17.04;79.39
40502;BME280;29631;49.168;9.848;2022-11-09T00:33:55;96298.75;;;17.03;79.80
40502;BME280;29631;49.168;9.848;2022-11-09T00:36:24;96290.31;;;16.85;79.65
40502;BME280;29631;49.168;9.848;2022-11-09T00:38:53;96300.84;;;17.01;79.78
40502;BME280;29631;49.168;9.848;2022-11-09T00:41:20;96266.88;;;16.82;79.63
40502;BME280;29631;49.168;9.848;2022-11-09T00:43:47;96293.97;;;17.05;79.39
40502;BME280;29631;49.168;9.848;2022-11-09T00:46:13;96268.25;;;16.89;79.18
40502;BME280;29631;49.168;9.848;2022-11-09T00:48:39;96254.16;;;16.89;79.17
40502;BME280;29631;49.168;9.848;2022-11-09T00:51:05;96270.19;;;16.99;79.26
40502;BME280;29631;49.168;9.848;2022-11-09T00:53:31;96279.84;;;17.05;79.37
40502;BME280;29631;49.168;9.848;2022-11-09T00:56:04;96272.38;;;17.02;79.79
40502;BME280;29631;49.168;9.848;2022-11-09T00:58:33;96267.28;;;17.00;79.75
40502;BME280;29631;49.168;9.848;2022-11-09T01:01:06;96273.47;;;17.06;79.71
40502;BME280;29631;49.168;9.848;2022-11-09T01:03:32;96258.19;;;16.96;79.08
40502;BME280;29631;49.168;9.848;2022-11-09T01:05:58;96274.25;;;17.06;79.41
40502;BME280;29631;49.168;9.848;2022-11-09T01:08:25;96279.41;;;17.18;79.06
40502;BME280;29631;49.168;9.848;2022-11-09T01:10:51;96263.66;;;17.11;79.63
40502;BME280;29631;49.168;9.848;2022-11-09T01:13:18;96259.13;;;17.12;79.24
40502;BME280;29631;49.168;9.848;2022-11-09T01:15:50;96270.38;;;17.19;79.03
40502;BME280;29631;49.168;9.848;2022-11-09T01:18:18;96276.78;;;17.23;79.90
40502;BME280;29631;49.168;9.848;2022-11-09T01:20:47;96237.75;;;17.02;79.04
40502;BME280;29631;49.168;9.848;2022-11-09T01:23:15;96278.38;;;17.24;79.41
40502;BME280;29631;49.168;9.848;2022-11-09T01:25:42;96260.78;;;17.23;79.01
40502;BME280;29631;49.168;9.848;2022-11-09T01:28:09;96264.53;;;17.22;79.53
40502;BME280;29631;49.168;9.848;2022-11-09T01:30:38;96265.53;;;17.16;79.46
40502;BME280;29631;49.168;9.848;2022-11-09T01:33:06;96270.84;;;17.16;79.42
40502;BME280;29631;49.168;9.848;2022-11-09T01:35:34;96285.25;;;17.15;79.41
40502;BME280;29631;49.168;9.848;2022-11-09T01:38:01;96282.00;;;17.08;79.23
40502;BME280;29631;49.168;9.848;2022-11-09T01:40:28;96245.91;;;16.90;79.45
40502;BME280;29631;49.168;9.848;2022-11-09T01:42:54;96262.75;;;17.01;79.05
40502;BME280;29631;49.168;9.848;2022-11-09T01:45:30;96268.63;;;17.03;79.51
40502;BME280;29631;49.168;9.848;2022-11-09T01:51:06;96254.94;;;16.89;79.65
40502;BME280;29631;49.168;9.848;2022-11-09T01:53:37;96261.56;;;16.87;79.63
40502;BME280;29631;49.168;9.848;2022-11-09T01:56:07;96276.31;;;16.99;80.20
40502;BME280;29631;49.168;9.848;2022-11-09T01:59:07;96280.84;;;16.99;79.33
40502;BME280;29631;49.168;9.848;2022-11-09T02:01:34;96268.06;;;16.96;79.39
40502;BME280;29631;49.168;9.848;2022-11-09T02:04:11;96263.78;;;16.95;79.39
40502;BME280;29631;49.168;9.848;2022-11-09T02:06:38;96259.25;;;16.95;79.69
40502;BME280;29631;49.168;9.848;2022-11-09T02:09:33;96272.88;;;16.99;79.77
40502;BME280;29631;49.168;9.848;2022-11-09T02:12:02;96260.06;;;16.96;79.06
40502;BME280;29631;49.168;9.848;2022-11-09T02:14:28;96275.53;;;16.99;79.73
40502;BME280;29631;49.168;9.848;2022-11-09T02:16:55;96241.28;;;16.81;79.27
40502;BME280;29631;49.168;9.848;2022-11-09T02:19:21;96264.88;;;16.99;80.42
40502;BME280;29631;49.168;9.848;2022-11-09T02:21:47;96250.97;;;16.92;79.89
40502;BME280;29631;49.168;9.848;2022-11-09T02:24:13;96251.72;;;16.87;79.57
40502;BME280;29631;49.168;9.848;2022-11-09T02:26:42;96256.28;;;16.92;79.56
40502;BME280;29631;49.168;9.848;2022-11-09T02:29:13;96244.00;;;16.86;80.06
40502;BME280;29631;49.168;9.848;2022-11-09T02:31:45;96235.97;;;16.81;80.16
40502;BME280;29631;49.168;9.848;2022-11-09T02:34:16;96253.66;;;16.97;79.84
40502;BME280;29631;49.168;9.848;2022-11-09T02:36:42;96239.25;;;16.93;80.41
40502;BME280;29631;49.168;9.848;2022-11-09T02:39:09;96228.59;;;16.93;79.98
40502;BME280;29631;49.168;9.848;2022-11-09T02:42:07;96246.25;;;17.04;80.15
40502;BME280;29631;49.168;9.848;2022-11-09T02:44:47;96255.97;;;17.15;79.69
40502;BME280;29631;49.168;9.848;2022-11-09T02:47:14;96272.75;;;17.20;79.66
40502;BME280;29631;49.168;9.848;2022-11-09T02:49:39;96284.88;;;17.28;80.01
40502;BME280;29631;49.168;9.848;2022-11-09T02:52:05;96277.94;;;17.27;80.63
40502;BME280;29631;49.168;9.848;2022-11-09T02:54:31;96292.88;;;17.33;79.71
40502;BME280;29631;49.168;9.848;2022-11-09T02:56:57;96286.50;;;17.34;80.40
40502;BME280;29631;49.168;9.848;2022-11-09T02:59:22;96283.28;;;17.32;80.40
40502;BME280;29631;49.168;9.848;2022-11-09T03:01:48;96289.75;;;17.41;80.81
40502;BME280;29631;49.168;9.848;2022-11-09T03:04:14;96269.16;;;17.31;80.15
40502;BME280;29631;49.168;9.848;2022-11-09T03:06:39;96273.75;;;17.41;81.22
40502;BME280;29631;49.168;9.848;2022-11-09T03:09:07;96285.00;;;17.48;80.37
40502;BME280;29631;49.168;9.848;2022-11-09T03:11:35;96290.38;;;17.52;80.53
40502;BME280;29631;49.168;9.848;2022-11-09T03:14:01;96282.34;;;17.48;80.96
40502;BME280;29631;49.168;9.848;2022-11-09T03:16:28;96295.69;;;17.52;80.71
40502;BME280;29631;49.168;9.848;2022-11-09T03:18:54;96288.00;;;17.56;81.50
40502;BME280;29631;49.168;9.848;2022-11-09T03:21:19;96285.28;;;17.51;80.66
40502;BME280;29631;49.168;9.848;2022-11-09T03:23:47;96281.03;;;17.50;80.75
40502;BME280;29631;49.168;9.848;2022-11-09T03:26:14;96259.84;;;17.34;81.00
40502;BME280;29631;49.168;9.848;2022-11-09T03:28:40;96300.00;;;17.58;81.21
40502;BME280;29631;49.168;9.848;2022-11-09T03:31:06;96302.97;;;17.62;81.40
40502;BME280;29631;49.168;9.848;2022-11-09T03:33:32;96288.22;;;17.54;81.90
40502;BME280;29631;49.168;9.848;2022-11-09T03:35:58;96313.91;;;17.65;81.51
40502;BME280;29631;49.168;9.848;2022-11-09T03:38:24;96314.41;;;17.62;81.11
40502;BME280;29631;49.168;9.848;2022-11-09T03:40:50;96318.69;;;17.63;81.18
40502;BME280;29631;49.168;9.848;2022-11-09T03:43:16;96317.81;;;17.53;81.54
40502;BME280;29631;49.168;9.848;2022-11-09T03:45:42;96344.88;;;17.71;81.37
40502;BME280;29631;49.168;9.848;2022-11-09T03:48:07;96335.84;;;17.72;81.79
40502;BME280;29631;49.168;9.848;2022-11-09T03:50:34;96344.88;;;17.71;81.51
40502;BME280;29631;49.168;9.848;2022-11-09T03:53:00;96345.44;;;17.73;81.33
40502;BME280;29631;49.168;9.848;2022-11-09T03:55:27;96338.50;;;17.72;81.56
40502;BME280;29631;49.168;9.848;2022-11-09T03:57:53;96337.94;;;17.70;81.63
40502;BME280;29631;49.168;9.848;2022-11-09T04:00:21;96326.19;;;17.66;81.65
40502;BME280;29631;49.168;9.848;2022-11-09T04:02:47;96337.94;;;17.70;82.00
40502;BME280;29631;49.168;9.848;2022-11-09T04:05:13;96349.19;;;17.77;81.75
40502;BME280;29631;49.168;9.848;2022-11-09T04:07:52;96321.59;;;17.57;82.08
40502;BME280;29631;49.168;9.848;2022-11-09T04:10:18;96334.72;;;17.68;81.66
40502;BME280;29631;49.168;9.848;2022-11-09T04:12:45;96355.31;;;17.78;81.60
40502;BME280;29631;49.168;9.848;2022-11-09T04:15:11;96349.47;;;17.76;81.99
40502;BME280;29631;49.168;9.848;2022-11-09T04:17:38;96357.47;;;17.76;82.05
40502;BME280;29631;49.168;9.848;2022-11-09T04:20:06;96346.50;;;17.72;82.09
40502;BME280;29631;49.168;9.848;2022-11-09T04:22:33;96368.91;;;17.76;82.17
40502;BME280;29631;49.168;9.848;2022-11-09T04:24:58;96340.59;;;17.65;82.32
40502;BME280;29631;49.168;9.848;2022-11-09T04:27:24;96353.72;;;17.77;82.12
40502;BME280;29631;49.168;9.848;2022-11-09T04:29:50;96353.97;;;17.75;82.42
40502;BME280;29631;49.168;9.848;2022-11-09T04:32:16;96347.59;;;17.76;82.72
40502;BME280;29631;49.168;9.848;2022-11-09T04:34:42;96354.56;;;17.82;82.63
40502;BME280;29631;49.168;9.848;2022-11-09T04:37:08;96337.38;;;17.68;83.21
40502;BME280;29631;49.168;9.848;2022-11-09T04:39:34;96349.47;;;17.76;83.50
40502;BME280;29631;49.168;9.848;2022-11-09T04:42:00;96351.59;;;17.79;82.50
40502;BME280;29631;49.168;9.848;2022-11-09T04:44:26;96334.72;;;17.68;82.89
40502;BME280;29631;49.168;9.848;2022-11-09T04:46:53;96344.34;;;17.74;82.91
40502;BME280;29631;49.168;9.848;2022-11-09T04:49:19;96340.59;;;17.65;83.73
40502;BME280;29631;49.168;9.848;2022-11-09T04:51:45;96348.63;;;17.70;83.79
40502;BME280;29631;49.168;9.848;2022-11-09T04:54:12;96326.41;;;17.60;83.89
40502;BME280;29631;49.168;9.848;2022-11-09T04:56:38;96343.53;;;17.69;83.34
40502;BME280;29631;49.168;9.848;2022-11-09T04:59:04;96344.59;;;17.68;84.10
40502;BME280;29631;49.168;9.848;2022-11-09T05:01:30;96346.50;;;17.72;84.25
40502;BME280;29631;49.168;9.848;2022-11-09T05:03:56;96327.22;;;17.60;84.07
40502;BME280;29631;49.168;9.848;2022-11-09T05:06:21;96347.59;;;17.76;83.71
40502;BME280;29631;49.168;9.848;2022-11-09T05:09:03;96342.50;;;17.70;83.60
40502;BME280;29631;49.168;9.848;2022-11-09T05:11:30;96353.69;;;17.72;84.36
40502;BME280;29631;49.168;9.848;2022-11-09T05:13:56;96348.13;;;17.73;84.32
40502;BME280;29631;49.168;9.848;2022-11-09T05:16:22;96352.66;;;17.78;84.70
40502;BME280;29631;49.168;9.848;2022-11-09T05:18:48;96315.44;;;17.56;83.95
40502;BME280;29631;49.168;9.848;2022-11-09T05:21:15;96343.78;;;17.67;83.99
40502;BME280;29631;49.168;9.848;2022-11-09T05:23:41;96350.72;;;17.68;83.87
40502;BME280;29631;49.168;9.848;2022-11-09T05:26:32;96357.66;;;17.69;84.36
40502;BME280;29631;49.168;9.848;2022-11-09T05:29:01;96355.56;;;17.71;84.45
40502;BME280;29631;49.168;9.848;2022-11-09T05:31:28;96352.88;;;17.66;84.41
40502;BME280;29631;49.168;9.848;2022-11-09T05:33:54;96337.59;;;17.57;84.91
40502;BME280;29631;49.168;9.848;2022-11-09T05:36:21;96345.91;;;17.65;84.77
40502;BME280;29631;49.168;9.848;2022-11-09T05:38:47;96352.28;;;17.59;84.43
40502;BME280;29631;49.168;9.848;2022-11-09T05:41:14;96354.38;;;17.57;84.29
40502;BME280;29631;49.168;9.848;2022-11-09T05:43:40;96346.81;;;17.45;84.44
40502;BME280;29631;49.168;9.848;2022-11-09T05:46:07;96345.38;;;17.32;84.99
40502;BME280;29631;49.168;9.848;2022-11-09T05:48:33;96364.28;;;17.31;85.23
40502;BME280;29631;49.168;9.848;2022-11-09T05:51:03;96359.91;;;17.20;85.02
40502;BME280;29631;49.168;9.848;2022-11-09T05:53:30;96358.75;;;17.11;85.39
40502;BME280;29631;49.168;9.848;2022-11-09T05:56:03;96367.47;;;17.06;85.64
40502;BME280;29631;49.168;9.848;2022-11-09T05:58:29;96366.66;;;17.01;85.87
40502;BME280;29631;49.168;9.848;2022-11-09T06:00:55;96350.50;;;16.86;85.46
40502;BME280;29631;49.168;9.848;2022-11-09T06:03:21;96318.56;;;16.60;85.67
40502;BME280;29631;49.168;9.848;2022-11-09T06:05:46;96357.88;;;16.79;86.39
40502;BME280;29631;49.168;9.848;2022-11-09T06:08:13;96331.00;;;16.54;86.39
40502;BME280;29631;49.168;9.848;2022-11-09T06:10:41;96341.16;;;16.57;86.44
40502;BME280;29631;49.168;9.848;2022-11-09T06:13:07;96347.97;;;16.48;87.02
40502;BME280;29631;49.168;9.848;2022-11-09T06:15:33;96349.75;;;16.43;86.79
40502;BME280;29631;49.168;9.848;2022-11-09T06:17:59;96361.38;;;16.37;87.03
40502;BME280;29631;49.168;9.848;2022-11-09T06:20:26;96339.72;;;16.28;87.39
40502;BME280;29631;49.168;9.848;2022-11-09T06:22:58;96355.09;;;16.26;87.75
40502;BME280;29631;49.168;9.848;2022-11-09T06:25:25;96368.41;;;16.26;87.89
40502;BME280;29631;49.168;9.848;2022-11-09T06:27:53;96341.84;;;16.10;87.51
40502;BME280;29631;49.168;9.848;2022-11-09T06:30:20;96312.34;;;15.90;87.26
40502;BME280;29631;49.168;9.848;2022-11-09T06:32:46;96351.13;;;16.07;87.85
40502;BME280;29631;49.168;9.848;2022-11-09T06:35:13;96370.06;;;16.11;88.39
40502;BME280;29631;49.168;9.848;2022-11-09T06:37:39;96319.94;;;15.82;88.54
40502;BME280;29631;49.168;9.848;2022-11-09T06:40:06;96350.03;;;16.03;88.44
40502;BME280;29631;49.168;9.848;2022-11-09T06:42:32;96355.72;;;16.12;88.38
40502;BME280;29631;49.168;9.848;2022-11-09T06:44:57;96351.63;;;16.04;88.13
40502;BME280;29631;49.168;9.848;2022-11-09T06:47:23;96360.78;;;16.13;88.72
40502;BME280;29631;49.168;9.848;2022-11-09T06:49:49;96364.50;;;16.12;88.70
40502;BME280;29631;49.168;9.848;2022-11-09T06:52:14;96367.72;;;16.14;88.77
40502;BME280;29631;49.168;9.848;2022-11-09T06:54:40;96337.72;;;15.98;89.32
40502;BME280;29631;49.168;9.848;2022-11-09T06:57:06;96368.53;;;16.15;89.23
40502;BME280;29631;49.168;9.848;2022-11-09T06:59:31;96323.72;;;15.86;89.52
40502;BME280;29631;49.168;9.848;2022-11-09T07:01:57;96400.78;;;16.18;89.42
40502;BME280;29631;49.168;9.848;2022-11-09T07:04:23;96401.31;;;16.20;89.33
40502;BME280;29631;49.168;9.848;2022-11-09T07:06:49;96391.41;;;16.16;89.71
40502;BME280;29631;49.168;9.848;2022-11-09T07:09:14;96401.09;;;16.22;89.73
40502;BME280;29631;49.168;9.848;2022-11-09T07:11:40;96383.03;;;16.07;90.05
40502;BME280;29631;49.168;9.848;2022-11-09T07:14:06;96400.63;;;16.08;90.18
40502;BME280;29631;49.168;9.848;2022-11-09T07:16:32;96421.97;;;16.13;90.23
40502;BME280;29631;49.168;9.848;2022-11-09T07:18:58;96403.22;;;16.03;90.48
40502;BME280;29631;49.168;9.848;2022-11-09T07:21:23;96403.53;;;16.07;90.38
40502;BME280;29631;49.168;9.848;2022-11-09T07:23:50;96411.75;;;16.05;90.44
40502;BME280;29631;49.168;9.848;2022-11-09T07:26:16;96411.81;;;16.10;91.03
40502;BME280;29631;49.168;9.848;2022-11-09T07:28:42;96404.81;;;16.04;91.01
40502;BME280;29631;49.168;9.848;2022-11-09T07:31:09;96415.59;;;16.14;90.85
40502;BME280;29631;49.168;9.848;2022-11-09T07:33:35;96418.81;;;16.16;90.74
40502;BME280;29631;49.168;9.848;2022-11-09T07:36:03;96450.09;;;16.26;91.33
40502;BME280;29631;49.168;9.848;2022-11-09T07:38:30;96400.22;;;16.00;91.14
40502;BME280;29631;49.168;9.848;2022-11-09T07:41:00;96434.91;;;16.26;91.63
40502;BME280;29631;49.168;9.848;2022-11-09T07:43:28;96447.03;;;16.34;90.77
40502;BME280;29631;49.168;9.848;2022-11-09T07:45:54;96462.16;;;16.50;90.80
40502;BME280;29631;49.168;9.848;2022-11-09T07:48:20;96464.06;;;16.54;91.08
40502;BME280;29631;49.168;9.848;2022-11-09T07:50:46;96457.28;;;16.63;90.83
40502;BME280;29631;49.168;9.848;2022-11-09T07:53:14;96379.81;;;16.22;90.90
40502;BME280;29631;49.168;9.848;2022-11-09T07:55:40;96445.66;;;16.69;91.06
40502;BME280;29631;49.168;9.848;2022-11-09T07:58:11;96431.97;;;16.61;91.08
40502;BME280;29631;49.168;9.848;2022-11-09T08:00:39;96464.97;;;16.81;90.59
40502;BME280;29631;49.168;9.848;2022-11-09T08:03:05;96469.25;;;16.82;90.63
40502;BME280;29631;49.168;9.848;2022-11-09T08:05:32;96467.69;;;16.86;90.99
40502;BME280;29631;49.168;9.848;2022-11-09T08:08:01;96467.72;;;16.91;90.76
40502;BME280;29631;49.168;9.848;2022-11-09T08:10:29;96443.97;;;16.84;91.24
40502;BME280;29631;49.168;9.848;2022-11-09T08:12:57;96440.00;;;16.87;90.59
40502;BME280;29631;49.168;9.848;2022-11-09T08:15:24;96434.41;;;16.88;90.99
40502;BME280;29631;49.168;9.848;2022-11-09T08:17:50;96439.06;;;16.98;91.33
40502;BME280;29631;49.168;9.848;2022-11-09T08:20:16;96465.88;;;17.13;91.03
40502;BME280;29631;49.168;9.848;2022-11-09T08:22:43;96418.75;;;16.92;91.12
40502;BME280;29631;49.168;9.848;2022-11-09T08:25:10;96459.19;;;17.10;91.55
40502;BME280;29631;49.168;9.848;2022-11-09T08:27:37;96459.56;;;16.97;91.57
40502;BME280;29631;49.168;9.848;2022-11-09T08:30:17;96447.00;;;16.93;92.87
40502;BME280;29631;49.168;9.848;2022-11-09T08:32:43;96446.19;;;16.92;92.68
40502;BME280;29631;49.168;9.848;2022-11-09T08:35:11;96454.56;;;17.01;92.10
40502;BME280;29631;49.168;9.848;2022-11-09T08:37:41;96436.66;;;16.96;92.19
40502;BME280;29631;49.168;9.848;2022-11-09T08:40:08;96427.66;;;17.02;92.37
40502;BME280;29631;49.168;9.848;2022-11-09T08:42:34;96451.53;;;17.19;92.37
40502;BME280;29631;49.168;9.848;2022-11-09T08:45:00;96440.84;;;17.14;92.37
40502;BME280;29631;49.168;9.848;2022-11-09T08:47:27;96452.22;;;17.31;92.31
40502;BME280;29631;49.168;9.848;2022-11-09T08:49:53;96442.38;;;17.31;91.92
40502;BME280;29631;49.168;9.848;2022-11-09T08:52:18;96456.59;;;17.42;92.14
40502;BME280;29631;49.168;9.848;2022-11-09T08:54:44;96458.50;;;17.46;92.34
40502;BME280;29631;49.168;9.848;2022-11-09T08:57:10;96428.16;;;17.26;92.24
40502;BME280;29631;49.168;9.848;2022-11-09T08:59:36;96449.97;;;17.44;92.61
40502;BME280;29631;49.168;9.848;2022-11-09T09:02:02;96449.69;;;17.41;92.09
40502;BME280;29631;49.168;9.848;2022-11-09T09:04:28;96461.44;;;17.45;92.24
40502;BME280;29631;49.168;9.848;2022-11-09T09:06:54;96474.31;;;17.52;92.17
40502;BME280;29631;49.168;9.848;2022-11-09T09:09:20;96478.44;;;17.39;92.30
40502;BME280;29631;49.168;9.848;2022-11-09T09:11:46;96481.66;;;17.41;92.98
40502;BME280;29631;49.168;9.848;2022-11-09T09:14:12;96462.63;;;17.32;92.66
40502;BME280;29631;49.168;9.848;2022-11-09T09:16:38;96440.88;;;17.19;92.79
40502;BME280;29631;49.168;9.848;2022-11-09T09:19:03;96458.78;;;17.23;92.43
40502;BME280;29631;49.168;9.848;2022-11-09T09:21:29;96448.13;;;17.23;93.26
40502;BME280;29631;49.168;9.848;2022-11-09T09:23:55;96405.72;;;16.95;92.93
40502;BME280;29631;49.168;9.848;2022-11-09T09:26:21;96440.88;;;17.19;93.52
40502;BME280;29631;49.168;9.848;2022-11-09T09:28:46;96455.41;;;17.28;93.60
40502;BME280;29631;49.168;9.848;2022-11-09T09:31:12;96465.25;;;17.27;93.04
40502;BME280;29631;49.168;9.848;2022-11-09T09:33:38;96471.84;;;17.25;93.69
40502;BME280;29631;49.168;9.848;2022-11-09T09:36:04;96457.44;;;17.21;93.76
40502;BME280;29631;49.168;9.848;2022-11-09T09:38:30;96448.84;;;17.14;94.34
40502;BME280;29631;49.168;9.848;2022-11-09T09:40:59;96471.06;;;17.24;94.56
40502;BME280;29631;49.168;9.848;2022-11-09T09:43:33;96471.72;;;17.31;95.24
40502;BME280;29631;49.168;9.848;2022-11-09T09:46:09;96473.53;;;17.31;95.28
40502;BME280;29631;49.168;9.848;2022-11-09T09:48:45;96459.59;;;17.24;94.84
40502;BME280;29631;49.168;9.848;2022-11-09T09:51:38;96468.13;;;17.26;95.17
40502;BME280;29631;49.168;9.848;2022-11-09T09:54:20;96478.81;;;17.26;95.94
40502;BME280;29631;49.168;9.848;2022-11-09T09:56:50;96479.41;;;17.28;95.70
40502;BME280;29631;49.168;9.848;2022-11-09T10:00:05;96463.50;;;17.16;95.82
40502;BME280;29631;49.168;9.848;2022-11-09T10:02:25;96470.25;;;17.24;96.58
40502;BME280;29631;49.168;9.848;2022-11-09T10:04:58;96400.84;;;16.87;95.96
40502;BME280;29631;49.168;9.848;2022-11-09T10:07:39;96473.09;;;17.39;95.80
40502;BME280;29631;49.168;9.848;2022-11-09T10:13:37;96454.25;;;17.24;95.75
40502;BME280;29631;49.168;9.848;2022-11-09T10:16:17;96471.59;;;17.48;95.61
40502;BME280;29631;49.168;9.848;2022-11-09T10:19:14;96461.44;;;17.45;96.45
40502;BME280;29631;49.168;9.848;2022-11-09T10:22:07;96466.31;;;17.52;96.08
40502;BME280;29631;49.168;9.848;2022-11-09T10:25:39;96473.31;;;17.58;96.93
40502;BME280;29631;49.168;9.848;2022-11-09T10:27:51;96460.28;;;17.62;96.29
40502;BME280;29631;49.168;9.848;2022-11-09T10:30:20;96465.16;;;17.70;96.33
40502;BME280;29631;49.168;9.848;2022-11-09T10:33:15;96451.56;;;17.71;96.06
40502;BME280;29631;49.168;9.848;2022-11-09T10:38:47;96448.78;;;17.93;96.25
40502;BME280;29631;49.168;9.848;2022-11-09T10:41:26;96458.19;;;18.36;96.21
40502;BME280;29631;49.168;9.848;2022-11-09T10:43:54;96435.66;;;18.64;94.68
40502;BME280;29631;49.168;9.848;2022-11-09T10:46:19;96458.84;;;19.09;94.04
40502;BME280;29631;49.168;9.848;2022-11-09T10:48:46;96451.16;;;19.33;93.65
40502;BME280;29631;49.168;9.848;2022-11-09T10:51:42;96452.53;;;19.45;94.25
40502;BME280;29631;49.168;9.848;2022-11-09T10:54:27;96443.19;;;19.53;94.63
40502;BME280;29631;49.168;9.848;2022-11-09T10:57:08;96449.34;;;19.58;94.36
40502;BME280;29631;49.168;9.848;2022-11-09T10:59:53;96453.38;;;19.61;94.95
40502;BME280;29631;49.168;9.848;2022-11-09T11:07:44;96439.72;;;19.67;94.84
40502;BME280;29631;49.168;9.848;2022-11-09T11:10:20;96415.91;;;19.56;95.14
40502;BME280;29631;49.168;9.848;2022-11-09T11:15:34;96438.13;;;19.71;95.51
40502;BME280;29631;49.168;9.848;2022-11-09T11:18:03;96428.50;;;19.75;95.52
40502;BME280;29631;49.168;9.848;2022-11-09T11:20:34;96422.59;;;19.83;95.59
40502;BME280;29631;49.168;9.848;2022-11-09T11:23:18;96433.09;;;19.94;95.46
40502;BME280;29631;49.168;9.848;2022-11-09T11:31:03;96403.09;;;19.97;95.02
40502;BME280;29631;49.168;9.848;2022-11-09T11:33:32;96381.69;;;19.82;95.47
40502;BME280;29631;49.168;9.848;2022-11-09T11:36:47;96426.88;;;20.19;95.12
40502;BME280;29631;49.168;9.848;2022-11-09T11:39:57;96431.16;;;20.20;95.35
40502;BME280;29631;49.168;9.848;2022-11-09T11:57:02;96417.25;;;20.28;95.08
40502;BME280;29631;49.168;9.848;2022-11-09T12:00:11;96420.47;;;20.30;95.17
40502;BME280;29631;49.168;9.848;2022-11-09T12:02:57;96415.38;;;20.33;94.53
40502;BME280;29631;49.168;9.848;2022-11-09T12:09:28;96413.44;;;20.48;94.52
40502;BME280;29631;49.168;9.848;2022-11-09T12:17:39;96410.69;;;20.73;93.65
40502;BME280;29631;49.168;9.848;2022-11-09T12:20:37;96405.31;;;20.73;93.37
40502;BME280;29631;49.168;9.848;2022-11-09T12:29:14;96403.69;;;20.87;93.07
40502;BME280;29631;49.168;9.848;2022-11-09T12:37:17;96390.81;;;20.84;93.09
40502;BME280;29631;49.168;9.848;2022-11-09T12:39:48;96391.06;;;20.88;92.77
40502;BME280;29631;49.168;9.848;2022-11-09T12:42:35;96370.44;;;20.83;92.48
40502;BME280;29631;49.168;9.848;2022-11-09T12:47:44;96378.38;;;21.03;91.96
40502;BME280;29631;49.168;9.848;2022-11-09T12:50:17;96375.47;;;21.05;92.00
40502;BME280;29631;49.168;9.848;2022-11-09T12:52:46;96372.00;;;20.99;92.09
40502;BME280;29631;49.168;9.848;2022-11-09T12:55:25;96362.34;;;20.98;91.67
40502;BME280;29631;49.168;9.848;2022-11-09T12:57:53;96361.88;;;20.86;91.49
40502;BME280;29631;49.168;9.848;2022-11-09T13:03:04;96360.84;;;20.72;91.75
40502;BME280;29631;49.168;9.848;2022-11-09T13:05:37;96381.78;;;20.75;92.25
40502;BME280;29631;49.168;9.848;2022-11-09T13:08:17;96343.78;;;20.53;91.50
40502;BME280;29631;49.168;9.848;2022-11-09T13:10:44;96324.00;;;20.40;92.08
40502;BME280;29631;49.168;9.848;2022-11-09T13:15:38;96378.00;;;20.76;91.63
40502;BME280;29631;49.168;9.848;2022-11-09T13:18:21;96381.19;;;20.78;91.67
40502;BME280;29631;49.168;9.848;2022-11-09T13:20:48;96381.72;;;20.85;91.82
40502;BME280;29631;49.168;9.848;2022-11-09T13:23:29;96379.06;;;20.80;91.65
40502;BME280;29631;49.168;9.848;2022-11-09T13:25:56;96383.34;;;20.81;91.33
40502;BME280;29631;49.168;9.848;2022-11-09T13:30:58;96384.41;;;20.80;91.28
40502;BME280;29631;49.168;9.848;2022-11-09T13:33:30;96372.66;;;20.66;91.05
40502;BME280;29631;49.168;9.848;2022-11-09T13:38:34;96402.63;;;20.88;91.05
40502;BME280;29631;49.168;9.848;2022-11-09T13:44:34;96393.50;;;20.84;91.68
40502;BME280;29631;49.168;9.848;2022-11-09T13:47:00;96399.41;;;20.86;91.16
40502;BME280;29631;49.168;9.848;2022-11-09T13:49:45;96383.88;;;20.78;91.64
40502;BME280;29631;49.168;9.848;2022-11-09T13:52:47;96394.56;;;20.83;91.40
40502;BME280;29631;49.168;9.848;2022-11-09T13:55:36;96395.69;;;20.77;91.45
40502;BME280;29631;49.168;9.848;2022-11-09T14:00:48;96399.44;;;20.76;91.52
40502;BME280;29631;49.168;9.848;2022-11-09T14:03:27;96403.72;;;20.77;91.51
40502;BME280;29631;49.168;9.848;2022-11-09T14:06:02;96386.88;;;20.62;92.03
40502;BME280;29631;49.168;9.848;2022-11-09T14:08:34;96406.97;;;20.69;91.99
40502;BME280;29631;49.168;9.848;2022-11-09T14:21:11;96418.25;;;20.46;92.33
40502;BME280;29631;49.168;9.848;2022-11-09T14:23:19;96421.22;;;20.45;92.29
40502;BME280;29631;49.168;9.848;2022-11-09T14:25:47;96408.34;;;20.42;92.15
40502;BME280;29631;49.168;9.848;2022-11-09T14:28:26;96433.78;;;20.44;92.81
40502;BME280;29631;49.168;9.848;2022-11-09T14:30:53;96421.50;;;20.39;92.52
40502;BME280;29631;49.168;9.848;2022-11-09T14:33:24;96434.63;;;20.45;92.18
40502;BME280;29631;49.168;9.848;2022-11-09T14:35:53;96431.97;;;20.40;92.48
40502;BME280;29631;49.168;9.848;2022-11-09T14:38:46;96432.47;;;20.37;92.80
40502;BME280;29631;49.168;9.848;2022-11-09T14:41:20;96441.06;;;20.39;92.30
40502;BME280;29631;49.168;9.848;2022-11-09T14:43:48;96438.09;;;20.41;92.71